Main page
METAR-TAF:

METAR-TAF

Airports :

Valladolid Airport

Valladolid, Spain

latitude: 41-43N, longitude: 004-51W, elevation: 849 m

Current weather observation

The report was made 2 hours and 11 minutes ago, at 19:30 UTC
Wind 6 kt from the North
Temperature 13°C
Humidity 67%
Pressure 1014 hPa
Visibility 10 km or more
no clouds below 1500 m and no cumulonimbus

METAR: LEVD 171930Z 01006KT CAVOK 13/07 Q1014

Time: 23:41 (21:41 UTC)

Forecast

The report was made 4 hours and 41 minutes ago, at 17:00 UTC
Forecast valid from 17 at 18 UTC to 18 at 18 UTC
Wind 5 kt from the West
Visibility 10 km or more
no clouds below 1500 m and no cumulonimbus
Probability 30% :
Temporary
from 18 at 00 UTC to 18 at 10 UTC
Visibility: 4000 m
Scattered clouds at a height of 1000 ft
rain
Becoming
from 18 at 09 UTC to 18 at 11 UTC
Wind 10 kt from the Northeast

TAF: LEVD 171700Z 1718/1818 27005KT CAVOK TX19/1814Z TN07/1806Z PROB30 TEMPO 1800/1810 4000 RA SCT010 BECMG 1809/1811 05010KT

Weather observations and forecasts of more than 4000 airports (METAR and TAF reports).

The available stations are represented by yellow and red dots on the map.

Hover mouse over dot to see the name of the station.

Then click to see weather observations and forecasts.

To change the map : click on the green buttons with a black cross to zoom in, on the green button with a dash to zoom out, or on the green arrows for adjacent maps.


METAR-TAF: